Airfield :
LOGIN :

Register | Disclaimer

   EN    FR    IT 

 










Legend :    VFR   Marginal VFR   IFR   Intensive IFR   Very Intensive IFR
Visi :
Ceiling :
>= 8 km
>= 3000ft
5 to 8 km
1000 to 3000 ft
1500m to 5 km
500 to 1000 ft
800 to 1500m
200 to 500 ft
< 800m
< 200 ft
Symbols :   Thunderstorms  Fog  Heavy snow  Heavy precipitations  Wind > 20 kt
SIGMETs :     Misc.  Thunderstorms  Icing  Turbulence  Mountain Waves  Volcanic Ashes






- Airport Elevation : 55 ft
- IATA code : DSA


EGCN - Robin Hood Doncaster Sheffield

CURRENT METAR :
  • 300720Z 21011KT 9999 BKN020 15/13 Q1009

EXPIRED METARs :
  • 300650Z 20010KT 9999 BKN021 BKN028 15/13 Q1008
  • 300620Z 20011KT 9999 BKN019 OVC025 15/13 Q1008
  • 300550Z 20013KT 9999 OVC020 15/13 Q1008
  • 300520Z 19011KT 9999 BKN017 OVC024 15/13 Q1008
  • 300450Z 20011KT 9999 BKN017 OVC024 15/13 Q1008

TAF TAF EGCN
Valid from the 30 at 06:00 until the 31 at 06:00 UTC


300500Z 3006/3106 21012KT 9999 BKN020
BECMG 3006/3009 27010KT
TEMPO 3006/3009 6000 RA BKN010
PROB30
TEMPO 3009/3012 6000 RA BKN014
BECMG 3015/3018 VRB02KT
BECMG 3021/3024 BKN010
TEMPO 3022/3106 7000 RA BKN008
PROB30
TEMPO 3022/3105 4000 +RA BKN004
BECMG 3103/3106 18013KT



MET'MAP, your aeronautical weather chart ! - Copyright ORBIFLY December 2007 - Disclaimer

ORBIFLY MET'MAP TEAM :

Programming & Development : Alexandra Zaïnal
Concept & original design : Baudouin d'Aumeries
Assistance for programming : Marc-Olivier Méhu
Technical & hardware support : Manuel Goepfert

Contact : metmap@orbifly.com




SOURCES & CREDITS :

   NOAA